createdAt,value
2019-01-14T00:00:01.685Z,0.4
2019-01-14T00:05:01.592Z,0.4
2019-01-14T00:10:01.528Z,0.5
2019-01-14T00:15:01.601Z,0.5
2019-01-14T00:20:01.471Z,0.4
2019-01-14T00:30:01.481Z,0.5
2019-01-14T00:35:01.487Z,0.3
2019-01-14T00:40:01.471Z,0.2
2019-01-14T00:45:01.487Z,0.2
2019-01-14T00:50:01.435Z,0.1
2019-01-14T00:55:01.555Z,0.0
2019-01-14T01:00:01.506Z,0.0
2019-01-14T01:05:01.512Z,0.0
2019-01-14T01:10:01.440Z,0.0
2019-01-14T01:15:01.498Z,0.1
2019-01-14T01:20:01.455Z,0.3
2019-01-14T01:25:01.577Z,0.3
2019-01-14T01:30:01.426Z,0.3
2019-01-14T01:35:01.558Z,0.3
2019-01-14T01:40:01.444Z,0.1
2019-01-14T01:45:01.521Z,0.0
2019-01-14T01:50:01.495Z,0.0
2019-01-14T01:55:01.463Z,0.0
2019-01-14T02:00:01.547Z,0.0
2019-01-14T02:05:01.502Z,0.0
2019-01-14T02:10:01.491Z,0.0
2019-01-14T02:15:01.511Z,0.0
2019-01-14T02:20:01.445Z,0.1
2019-01-14T02:25:01.582Z,0.1
2019-01-14T02:30:01.454Z,0.1
2019-01-14T02:35:01.447Z,0.1
2019-01-14T02:45:01.555Z,0.0
2019-01-14T02:50:01.481Z,0.0
2019-01-14T02:55:01.491Z,0.0
2019-01-14T03:00:01.421Z,0.0
2019-01-14T03:05:01.487Z,0.0
2019-01-14T03:10:01.497Z,0.0
2019-01-14T03:15:01.568Z,0.0
2019-01-14T03:20:01.596Z,0.0
2019-01-14T03:25:01.602Z,0.1
2019-01-14T03:30:01.431Z,0.1
2019-01-14T03:35:01.533Z,0.1
2019-01-14T03:40:01.431Z,0.1
2019-01-14T03:45:01.558Z,0.1
2019-01-14T03:50:07.538Z,0.0
2019-01-14T03:55:01.516Z,0.0
2019-01-14T04:00:01.467Z,0.0
2019-01-14T04:05:01.461Z,0.0
2019-01-14T04:10:01.459Z,0.0
2019-01-14T04:15:01.564Z,0.0
2019-01-14T04:25:01.504Z,0.0
2019-01-14T04:30:01.472Z,0.0
2019-01-14T04:35:01.488Z,0.0
2019-01-14T04:40:01.427Z,0.0
2019-01-14T04:45:01.426Z,0.0
2019-01-14T04:50:01.430Z,0.0
2019-01-14T04:55:01.631Z,0.0
2019-01-14T05:00:01.457Z,0.0
2019-01-14T05:05:01.692Z,0.0
2019-01-14T05:10:01.466Z,0.0
2019-01-14T05:15:01.432Z,0.0
2019-01-14T05:30:01.429Z,0.0
2019-01-14T05:35:01.601Z,0.0
2019-01-14T05:40:01.452Z,0.0
2019-01-14T05:45:01.507Z,0.0
2019-01-14T05:50:01.440Z,0.0
2019-01-14T05:55:01.491Z,0.0
2019-01-14T06:00:01.416Z,0.0
2019-01-14T06:06:01.546Z,0.0
2019-01-14T06:11:01.493Z,0.0
2019-01-14T06:16:01.411Z,0.0
2019-01-14T06:21:01.549Z,0.0
2019-01-14T06:26:01.428Z,0.0
2019-01-14T06:41:01.597Z,0.0
2019-01-14T06:46:01.461Z,0.0
2019-01-14T06:56:01.498Z,0.0
2019-01-14T07:06:01.494Z,0.1
2019-01-14T07:11:01.488Z,0.2
2019-01-14T07:21:01.490Z,0.1
2019-01-14T07:26:06.430Z,0.2
2019-01-14T07:31:01.548Z,0.2
2019-01-14T07:36:01.431Z,0.1
2019-01-14T07:41:01.831Z,0.1
2019-01-14T07:51:01.584Z,0.0
2019-01-14T08:01:01.563Z,0.1
2019-01-14T08:07:01.425Z,0.1
2019-01-14T08:12:01.420Z,0.1
2019-01-14T08:17:03.086Z,0.1
2019-01-14T08:22:01.492Z,0.0
2019-01-14T08:27:01.424Z,0.0
2019-01-14T08:32:01.482Z,0.4
2019-01-14T08:37:01.434Z,0.9
2019-01-14T08:42:01.553Z,0.9
2019-01-14T08:47:01.422Z,1.0
2019-01-14T08:52:01.497Z,1.1
2019-01-14T08:57:01.432Z,0.6
2019-01-14T09:02:01.489Z,0.1
2019-01-14T09:13:01.484Z,0.1
2019-01-14T09:28:01.489Z,0.0
2019-01-14T09:33:01.672Z,0.0
2019-01-14T09:38:01.448Z,0.0
2019-01-14T09:43:01.499Z,0.0
2019-01-14T09:48:01.427Z,0.0
2019-01-14T09:58:01.489Z,0.0
2019-01-14T10:03:01.445Z,0.0
2019-01-14T10:08:01.450Z,0.0
2019-01-14T10:13:01.491Z,0.0
2019-01-14T10:24:01.478Z,0.0
2019-01-14T10:29:01.422Z,0.0
2019-01-14T10:34:01.542Z,0.0
2019-01-14T10:39:06.430Z,0.0
2019-01-14T10:49:07.334Z,0.0
2019-01-14T10:54:01.485Z,0.0
2019-01-14T10:59:01.470Z,0.0
2019-01-14T11:04:01.527Z,0.0
2019-01-14T11:09:06.435Z,0.0
2019-01-14T11:19:01.443Z,0.0
2019-01-14T11:24:01.488Z,0.0
2019-01-14T11:29:01.425Z,0.1
2019-01-14T11:34:01.565Z,0.1
2019-01-14T11:39:05.607Z,0.3
2019-01-14T11:44:01.517Z,0.3
2019-01-14T11:49:01.457Z,0.3
2019-01-14T11:54:01.523Z,0.1
2019-01-14T11:59:01.418Z,0.1
2019-01-14T12:04:01.633Z,0.0
2019-01-14T12:14:06.421Z,0.0
2019-01-14T12:19:01.433Z,0.0
2019-01-14T12:24:03.672Z,0.2
2019-01-14T12:29:01.419Z,0.2
2019-01-14T12:34:01.486Z,0.3
2019-01-14T12:39:01.418Z,0.3
2019-01-14T12:44:01.631Z,0.5
2019-01-14T12:49:01.417Z,1.2
2019-01-14T12:54:01.509Z,1.2
2019-01-14T13:04:01.485Z,1.1
2019-01-14T13:09:01.422Z,0.8
2019-01-14T13:14:01.492Z,0.0
2019-01-14T13:19:01.483Z,0.0
2019-01-14T13:24:01.545Z,0.0
2019-01-14T13:29:01.425Z,0.0
2019-01-14T13:34:01.421Z,0.0
2019-01-14T13:39:01.425Z,0.0
2019-01-14T13:44:01.426Z,0.0
2019-01-14T13:49:01.428Z,0.0
2019-01-14T13:59:01.495Z,0.0
2019-01-14T14:09:01.560Z,0.0
2019-01-14T14:14:01.486Z,0.0
2019-01-14T14:24:01.489Z,0.0
2019-01-14T14:29:01.427Z,0.0
2019-01-14T14:34:01.443Z,0.1
2019-01-14T14:39:01.417Z,0.1
2019-01-14T14:44:01.425Z,0.1
2019-01-14T14:49:01.900Z,0.1
2019-01-14T14:54:01.486Z,0.2
2019-01-14T14:59:01.431Z,0.1
2019-01-14T15:04:01.550Z,0.1
2019-01-14T15:14:01.509Z,0.4
2019-01-14T15:19:01.431Z,0.3
2019-01-14T15:24:03.111Z,0.4
2019-01-14T15:29:01.420Z,0.5
2019-01-14T15:34:01.480Z,0.7
2019-01-14T15:39:01.426Z,0.4
2019-01-14T15:44:01.537Z,0.6
2019-01-14T15:49:01.426Z,0.5
2019-01-14T15:54:01.585Z,0.4
2019-01-14T15:59:01.434Z,0.2
2019-01-14T16:09:01.446Z,0.1
2019-01-14T16:19:06.515Z,0.4
2019-01-14T16:24:01.533Z,0.4
2019-01-14T16:29:01.433Z,0.4
2019-01-14T16:34:01.582Z,0.4
2019-01-14T16:39:01.448Z,0.4
2019-01-14T16:44:01.478Z,0.0
2019-01-14T16:49:01.462Z,0.0
2019-01-14T16:54:01.493Z,0.0
2019-01-14T17:04:01.488Z,0.0
2019-01-14T17:09:01.425Z,0.0
2019-01-14T17:14:01.487Z,0.0
2019-01-14T17:19:01.465Z,0.0
2019-01-14T17:25:01.540Z,0.0
2019-01-14T17:30:01.562Z,0.0
2019-01-14T17:35:02.524Z,0.0
2019-01-14T17:40:01.428Z,0.0
2019-01-14T17:45:01.555Z,0.0
2019-01-14T17:50:01.432Z,0.8
2019-01-14T17:55:01.548Z,0.8
2019-01-14T18:00:01.442Z,0.8
2019-01-14T18:05:02.357Z,0.8
2019-01-14T18:10:01.433Z,0.8
2019-01-14T18:15:01.623Z,0.0
2019-01-14T18:20:01.445Z,0.0
2019-01-14T18:30:01.505Z,0.1
2019-01-14T18:40:01.684Z,0.1
2019-01-14T18:45:01.493Z,0.1
2019-01-14T18:55:01.425Z,0.1
2019-01-14T19:00:07.984Z,0.1
2019-01-14T19:05:01.555Z,0.1
2019-01-14T19:10:01.439Z,0.1
2019-01-14T19:15:01.495Z,0.3
2019-01-14T19:26:01.509Z,0.3
2019-01-14T19:31:01.542Z,0.3
2019-01-14T19:36:01.413Z,0.3
2019-01-14T19:41:02.453Z,0.2
2019-01-14T19:51:01.491Z,0.0
2019-01-14T19:56:01.427Z,0.0
2019-01-14T20:01:01.555Z,0.0
2019-01-14T20:06:01.430Z,0.0
2019-01-14T20:11:01.430Z,0.1
2019-01-14T20:16:01.525Z,0.1
2019-01-14T20:21:01.534Z,0.3
2019-01-14T20:26:01.442Z,0.4
2019-01-14T20:31:01.612Z,0.5
2019-01-14T20:36:01.516Z,0.3
2019-01-14T20:41:06.558Z,0.3
2019-01-14T20:46:01.431Z,0.2
2019-01-14T20:51:01.481Z,0.2
2019-01-14T20:56:01.425Z,0.2
2019-01-14T21:01:01.433Z,0.3
2019-01-14T21:06:01.430Z,0.3
2019-01-14T21:11:01.526Z,0.5
2019-01-14T21:21:01.493Z,0.4
2019-01-14T21:26:01.471Z,0.3
2019-01-14T21:31:01.499Z,0.3
2019-01-14T21:36:01.448Z,0.1
2019-01-14T21:41:01.543Z,0.0
2019-01-14T21:46:01.455Z,0.0
2019-01-14T21:51:02.024Z,0.0
2019-01-14T21:56:01.470Z,0.0
2019-01-14T22:01:01.506Z,0.0
2019-01-14T22:11:06.544Z,0.1
2019-01-14T22:21:01.521Z,0.1
2019-01-14T22:26:01.450Z,0.3
2019-01-14T22:31:01.527Z,0.3
2019-01-14T22:36:01.453Z,0.1
2019-01-14T22:41:01.582Z,0.1
2019-01-14T22:46:01.452Z,0.2
2019-01-14T22:51:01.543Z,0.1
2019-01-14T23:01:03.533Z,0.2
2019-01-14T23:16:01.480Z,0.2
2019-01-14T23:21:01.422Z,0.3
2019-01-14T23:26:01.430Z,0.2
2019-01-14T23:31:01.485Z,0.2
2019-01-14T23:36:01.420Z,0.1
2019-01-14T23:46:01.554Z,0.0
2019-01-14T23:51:01.556Z,0.0
2019-01-14T23:56:01.425Z,0.0
